Time;durP1;ratioP1;P1;durP2;ratioP2;P2;SDS_P1;SDS_P2;PMS_P1;PMS_P2;Temp;Humidity;BMP_temperature;BMP_pressure;BME280_temperature;BME280_humidity;BME280_pressure;Samples;Min_cycle;Max_cycle;Signal;HPM_P1;HPM_P2
2022/05/14 00:01:10;;;;;;;12.50;8.18;;;11.80;93.10;;;;;;4899327;29;20112;-81
2022/05/14 00:03:39;;;;;;;11.07;8.10;;;11.70;94.10;;;;;;4899577;29;20407;-82
2022/05/14 00:06:08;;;;;;;9.82;8.48;;;11.50;94.90;;;;;;4899118;29;20049;-81
2022/05/14 00:08:35;;;;;;;11.77;8.32;;;11.50;96.00;;;;;;4899104;29;20591;-81
2022/05/14 00:13:46;;;;;;;10.02;8.80;;;11.30;98.20;;;;;;4899163;29;20092;-81
2022/05/14 00:16:12;;;;;;;13.50;8.50;;;11.20;98.70;;;;;;4899043;29;20080;-90
2022/05/14 00:18:38;;;;;;;12.43;8.63;;;11.10;99.70;;;;;;4882103;29;20032;-81
2022/05/14 00:21:04;;;;;;;12.95;8.15;;;11.10;99.90;;;;;;4898958;29;20032;-81
2022/05/14 00:23:30;;;;;;;14.27;9.45;;;11.00;99.90;;;;;;4898937;29;20134;-90
2022/05/14 00:25:56;;;;;;;10.10;9.15;;;10.90;99.90;;;;;;4898511;29;20028;-81
2022/05/14 00:28:22;;;;;;;12.05;8.15;;;10.90;99.90;;;;;;4898944;29;20021;-90
2022/05/14 00:30:49;;;;;;;11.82;8.45;;;10.80;99.90;;;;;;4898768;29;20028;-90
2022/05/14 00:33:15;;;;;;;10.40;8.38;;;10.70;99.90;;;;;;4882068;29;20027;-81
2022/05/14 00:35:41;;;;;;;10.93;8.43;;;10.70;99.90;;;;;;4898471;29;20032;-91
2022/05/14 00:38:08;;;;;;;10.35;9.10;;;10.60;99.90;;;;;;4898412;29;20107;-91
2022/05/14 00:40:40;;;;;;;11.90;10.40;;;10.60;99.90;;;;;;4881786;29;20052;-90
2022/05/14 00:43:07;;;;;;;13.50;9.88;;;10.50;99.90;;;;;;4898422;29;20028;-90
2022/05/14 00:45:35;;;;;;;15.82;10.82;;;10.40;99.90;;;;;;4881870;29;20036;-81
2022/05/14 00:48:02;;;;;;;13.82;10.93;;;10.40;99.90;;;;;;4898605;29;20530;-91
2022/05/14 00:50:47;;;;;;;13.77;10.07;;;10.30;99.90;;;;;;4897456;29;20451;-91
2022/05/14 00:53:30;;;;;;;11.98;9.93;;;10.20;99.90;;;;;;4881298;29;20173;-90
2022/05/14 00:55:58;;;;;;;12.52;9.85;;;10.00;99.90;;;;;;4881948;29;20385;-90
2022/05/14 00:58:44;;;;;;;13.40;9.75;;;10.00;99.90;;;;;;4897863;29;20418;-81
2022/05/14 01:01:11;;;;;;;13.50;9.27;;;9.80;99.90;;;;;;4898252;29;20105;-86
2022/05/14 01:03:37;;;;;;;13.85;10.10;;;9.80;99.90;;;;;;4881483;29;20028;-82
2022/05/14 01:06:06;;;;;;;18.45;10.15;;;9.70;99.90;;;;;;4898334;29;20028;-89
2022/05/14 01:08:34;;;;;;;12.70;10.23;;;9.60;99.90;;;;;;4881565;29;20111;-91
2022/05/14 01:10:59;;;;;;;13.30;10.48;;;9.60;99.90;;;;;;4898044;29;20037;-81
2022/05/14 01:13:25;;;;;;;12.80;10.43;;;9.50;99.90;;;;;;4898183;29;20027;-90
2022/05/14 01:15:54;;;;;;;13.23;10.65;;;9.40;99.90;;;;;;4881264;29;20119;-81
2022/05/14 01:18:23;;;;;;;15.93;10.32;;;9.30;99.90;;;;;;4881168;29;20029;-91
2022/05/14 01:20:55;;;;;;;13.98;9.70;;;9.40;99.90;;;;;;4881471;29;20136;-90
2022/05/14 01:26:42;;;;;;;12.40;9.35;;;9.30;99.90;;;;;;4897713;29;20140;-91
2022/05/14 01:29:15;;;;;;;12.02;10.18;;;9.20;99.90;;;;;;4897985;29;20052;-82
2022/05/14 01:31:42;;;;;;;17.55;10.48;;;9.10;99.90;;;;;;4897715;29;20029;-81
2022/05/14 01:34:11;;;;;;;12.85;10.00;;;9.10;99.90;;;;;;4897801;29;20036;-90
2022/05/14 01:36:39;;;;;;;10.93;9.73;;;9.00;99.90;;;;;;4880811;29;20025;-81
2022/05/14 01:39:06;;;;;;;13.18;11.20;;;8.90;99.90;;;;;;4897571;29;20120;-90
2022/05/14 01:41:32;;;;;;;13.23;10.73;;;8.90;99.90;;;;;;4897568;29;20029;-82
2022/05/14 01:43:57;;;;;;;12.55;11.15;;;8.80;99.90;;;;;;4897834;29;20047;-81
2022/05/14 01:46:23;;;;;;;13.95;10.82;;;8.70;99.90;;;;;;4897831;29;20028;-91
2022/05/14 01:48:49;;;;;;;19.50;11.70;;;8.70;99.90;;;;;;4881399;29;20466;-89
2022/05/14 01:51:16;;;;;;;15.07;11.30;;;8.70;99.90;;;;;;4898125;29;20036;-81
2022/05/14 01:53:42;;;;;;;15.02;10.43;;;8.70;99.90;;;;;;4897297;29;20028;-90
2022/05/14 01:56:07;;;;;;;13.88;10.82;;;8.60;99.90;;;;;;4897606;29;20032;-91
2022/05/14 01:58:36;;;;;;;17.95;11.30;;;8.60;99.90;;;;;;4881230;29;20036;-82
2022/05/14 02:01:28;;;;;;;11.95;10.27;;;8.50;99.90;;;;;;4897432;29;20039;-81
2022/05/14 02:03:58;;;;;;;11.88;9.52;;;8.30;99.90;;;;;;4881908;29;20439;-87
2022/05/14 02:06:25;;;;;;;15.45;11.57;;;8.20;99.90;;;;;;4884655;29;20017;-84
2022/05/14 02:08:51;;;;;;;12.30;10.60;;;8.20;99.90;;;;;;4901263;29;20471;-90
2022/05/14 02:11:16;;;;;;;12.73;10.93;;;8.10;99.90;;;;;;4901168;29;20049;-90
2022/05/14 02:13:44;;;;;;;13.93;10.38;;;8.00;99.90;;;;;;4884407;29;20025;-81
2022/05/14 02:16:09;;;;;;;14.13;10.85;;;8.00;99.90;;;;;;4901033;29;20036;-81
2022/05/14 02:18:36;;;;;;;18.80;10.07;;;8.00;99.90;;;;;;4901258;29;20039;-81
2022/05/14 02:21:03;;;;;;;16.77;11.10;;;7.90;99.90;;;;;;4901024;29;20463;-81
2022/05/14 02:23:30;;;;;;;13.73;10.38;;;7.90;99.90;;;;;;4900947;29;20047;-91
2022/05/14 02:25:56;;;;;;;13.88;10.90;;;7.90;99.90;;;;;;4884152;29;20024;-81
2022/05/14 02:28:21;;;;;;;14.52;10.82;;;7.80;99.90;;;;;;4901187;29;20039;-90
2022/05/14 02:30:47;;;;;;;15.70;11.63;;;7.80;99.90;;;;;;4900566;29;20427;-90
2022/05/14 02:33:14;;;;;;;14.93;12.27;;;7.80;99.90;;;;;;4883596;29;20036;-86
2022/05/14 02:35:40;;;;;;;16.73;11.30;;;7.80;99.90;;;;;;4900300;29;20033;-81
2022/05/14 02:38:06;;;;;;;14.57;11.30;;;7.80;99.90;;;;;;4900807;29;20040;-81
2022/05/14 02:40:32;;;;;;;15.48;12.38;;;7.70;99.90;;;;;;4901064;29;20055;-81
2022/05/14 02:42:58;;;;;;;17.25;11.63;;;7.80;99.90;;;;;;4900952;29;20058;-89
2022/05/14 02:45:24;;;;;;;21.08;11.80;;;7.70;99.90;;;;;;4883929;29;20021;-91
2022/05/14 02:47:49;;;;;;;14.88;11.02;;;7.70;99.90;;;;;;4900690;29;20032;-82
2022/05/14 02:50:17;;;;;;;14.60;11.80;;;7.60;99.90;;;;;;4900543;29;20534;-81
2022/05/14 02:52:42;;;;;;;14.48;11.27;;;7.60;99.90;;;;;;4900414;29;20111;-81
2022/05/14 02:55:09;;;;;;;13.70;10.90;;;7.50;99.90;;;;;;4900627;29;20086;-91
2022/05/14 02:57:35;;;;;;;16.73;10.68;;;7.50;99.90;;;;;;4883831;29;20024;-90
2022/05/14 03:00:02;;;;;;;11.43;9.73;;;7.40;99.90;;;;;;4883945;29;20116;-81
2022/05/14 03:02:28;;;;;;;9.77;8.32;;;7.30;99.90;;;;;;4900358;29;20066;-80
2022/05/14 03:04:54;;;;;;;10.70;9.60;;;7.30;99.90;;;;;;4900666;29;20032;-81
2022/05/14 03:07:20;;;;;;;14.70;10.30;;;7.30;99.90;;;;;;4900261;29;20115;-87
2022/05/14 03:09:45;;;;;;;12.80;9.68;;;7.30;99.90;;;;;;4883464;29;20025;-91
2022/05/14 03:12:13;;;;;;;11.50;9.60;;;7.20;99.90;;;;;;4900215;29;20039;-81
2022/05/14 03:14:40;;;;;;;9.57;8.65;;;7.10;99.90;;;;;;4882910;29;20641;-81
2022/05/14 03:17:06;;;;;;;13.77;9.45;;;7.10;99.90;;;;;;4900130;29;20040;-90
2022/05/14 03:19:32;;;;;;;12.82;10.38;;;7.10;99.90;;;;;;4883170;29;20037;-81
2022/05/14 03:21:59;;;;;;;10.05;9.02;;;7.00;99.90;;;;;;4900315;29;20098;-87
2022/05/14 03:24:25;;;;;;;11.63;9.95;;;7.00;99.90;;;;;;4883290;29;20024;-91
2022/05/14 03:26:51;;;;;;;14.48;10.57;;;7.00;99.90;;;;;;4888055;29;20052;-81
2022/05/14 03:29:17;;;;;;;14.38;11.02;;;7.00;99.90;;;;;;4898770;29;20032;-90
2022/05/14 03:31:42;;;;;;;13.60;11.27;;;6.90;99.90;;;;;;4898863;29;20032;-81
2022/05/14 03:34:13;;;;;;;15.05;11.75;;;6.90;99.90;;;;;;4899675;29;20100;-92
2022/05/14 03:36:40;;;;;;;14.48;11.48;;;7.00;99.90;;;;;;4899824;29;20075;-81
2022/05/14 03:39:06;;;;;;;13.63;10.63;;;7.10;99.90;;;;;;4900078;29;20464;-81
2022/05/14 03:41:33;;;;;;;14.30;10.70;;;7.20;99.90;;;;;;4899766;29;20394;-81
2022/05/14 03:43:59;;;;;;;10.32;9.18;;;7.30;99.90;;;;;;4899967;29;20020;-80
2022/05/14 03:46:24;;;;;;;10.48;9.32;;;7.40;99.90;;;;;;4899586;29;20114;-80
2022/05/14 03:48:50;;;;;;;9.20;8.30;;;7.50;99.90;;;;;;4899739;29;20391;-91
2022/05/14 03:51:16;;;;;;;10.00;9.13;;;7.50;99.90;;;;;;4899765;29;20060;-82
2022/05/14 03:53:41;;;;;;;10.73;9.63;;;7.70;99.90;;;;;;4899702;29;20386;-87
2022/05/14 03:56:08;;;;;;;14.52;11.02;;;7.90;99.90;;;;;;4899697;29;20032;-91
2022/05/14 03:58:35;;;;;;;10.20;9.20;;;8.10;99.90;;;;;;4898017;29;20131;-80
2022/05/14 04:01:02;;;;;;;11.20;10.10;;;8.20;99.90;;;;;;4899503;29;20108;-91
2022/05/14 04:03:28;;;;;;;11.27;9.30;;;8.40;99.90;;;;;;4899464;29;20184;-91
2022/05/14 04:05:54;;;;;;;11.23;10.02;;;8.50;99.90;;;;;;4899558;29;20080;-91
2022/05/14 04:08:19;;;;;;;13.40;10.68;;;8.50;99.90;;;;;;4898058;29;20111;-81
2022/05/14 04:10:45;;;;;;;11.82;9.75;;;8.60;99.90;;;;;;4899432;29;20020;-91
2022/05/14 04:13:12;;;;;;;12.05;10.55;;;8.70;99.90;;;;;;4897785;29;20040;-88
2022/05/14 04:15:38;;;;;;;16.40;11.32;;;8.90;99.90;;;;;;4897902;29;20020;-91
2022/05/14 04:18:05;;;;;;;14.27;10.45;;;9.00;99.90;;;;;;4897792;29;20483;-81
2022/05/14 04:20:30;;;;;;;12.25;10.75;;;9.20;99.90;;;;;;4898146;29;20542;-91
2022/05/14 04:22:57;;;;;;;15.25;10.52;;;9.20;99.90;;;;;;4898747;29;20028;-87
2022/05/14 04:25:23;;;;;;;12.15;10.23;;;9.40;99.90;;;;;;4898612;29;20029;-92
2022/05/14 04:27:48;;;;;;;15.73;11.43;;;9.60;99.90;;;;;;4898515;29;20049;-82
2022/05/14 04:30:15;;;;;;;13.35;11.15;;;9.80;99.90;;;;;;4898904;29;20120;-86
2022/05/14 04:32:42;;;;;;;16.83;11.57;;;9.90;99.90;;;;;;4882074;29;20028;-81
2022/05/14 04:35:09;;;;;;;15.48;10.98;;;10.00;99.90;;;;;;4898513;29;20029;-81
2022/05/14 04:37:36;;;;;;;12.95;10.30;;;10.20;99.90;;;;;;4898518;29;20415;-92
2022/05/14 04:40:02;;;;;;;18.00;12.55;;;10.30;99.90;;;;;;4882122;29;20024;-93
2022/05/14 04:42:28;;;;;;;16.05;11.68;;;10.30;99.90;;;;;;4898849;29;20037;-81
2022/05/14 04:44:54;;;;;;;17.83;11.70;;;10.50;99.90;;;;;;4898690;29;20108;-84
2022/05/14 04:47:19;;;;;;;16.60;11.77;;;10.60;99.90;;;;;;4881429;29;20458;-81
2022/05/14 04:49:46;;;;;;;16.77;11.77;;;10.70;99.90;;;;;;4898658;29;20104;-93
2022/05/14 04:52:12;;;;;;;15.43;10.82;;;10.90;99.90;;;;;;4898518;29;20916;-81
2022/05/14 04:54:39;;;;;;;14.45;11.07;;;11.00;98.90;;;;;;4898479;29;20031;-82
2022/05/14 04:57:06;;;;;;;17.30;12.02;;;11.10;98.60;;;;;;4898436;29;20057;-93
2022/05/14 04:59:32;;;;;;;20.40;11.80;;;11.20;97.90;;;;;;4881592;29;20039;-81
2022/05/14 05:04:44;;;;;;;16.23;11.82;;;11.40;99.90;;;;;;4898661;29;20099;-93
2022/05/14 05:07:09;;;;;;;17.00;11.38;;;11.50;99.90;;;;;;4881884;29;20029;-93
2022/05/14 05:09:35;;;;;;;15.95;10.98;;;11.50;99.90;;;;;;4897474;29;20033;-85
2022/05/14 05:12:02;;;;;;;27.25;12.23;;;11.70;99.90;;;;;;4897963;29;20039;-81
2022/05/14 05:14:27;;;;;;;15.82;9.50;;;11.80;99.90;;;;;;4897292;29;20038;-81
2022/05/14 05:16:53;;;;;;;13.68;9.07;;;11.90;98.50;;;;;;4897527;29;20372;-80
2022/05/14 05:19:19;;;;;;;13.10;9.32;;;12.00;96.90;;;;;;4897961;29;20141;-84
2022/05/14 05:21:45;;;;;;;11.05;9.52;;;12.10;93.20;;;;;;4898587;29;20033;-80
2022/05/14 05:24:11;;;;;;;18.02;10.57;;;12.30;92.10;;;;;;4881732;29;20089;-92
2022/05/14 05:26:37;;;;;;;13.80;8.65;;;12.40;90.30;;;;;;4884296;29;20135;-94
2022/05/14 05:29:05;;;;;;;14.23;9.95;;;12.50;88.80;;;;;;4898402;29;20470;-81
2022/05/14 05:31:32;;;;;;;12.05;8.93;;;12.60;87.20;;;;;;4897689;29;20073;-81
2022/05/14 05:33:58;;;;;;;11.70;8.48;;;12.70;86.60;;;;;;4896196;29;20025;-81
2022/05/14 05:36:24;;;;;;;12.90;8.07;;;12.90;84.50;;;;;;4900380;29;20024;-81
2022/05/14 05:38:53;;;;;;;14.85;8.75;;;13.00;83.60;;;;;;4903996;29;20044;-81
2022/05/14 05:41:20;;;;;;;12.57;8.57;;;13.10;82.50;;;;;;4903709;29;20064;-92
2022/05/14 05:43:46;;;;;;;9.23;7.80;;;13.20;80.20;;;;;;4904561;29;20475;-91
2022/05/14 05:46:12;;;;;;;14.25;8.57;;;13.20;76.20;;;;;;4903415;29;20024;-81
2022/05/14 05:48:39;;;;;;;15.48;8.27;;;13.40;77.10;;;;;;4903975;29;20033;-96
2022/05/14 05:51:05;;;;;;;7.63;6.88;;;13.50;76.50;;;;;;4902094;29;20024;-95
2022/05/14 05:59:00;;;;;;;9.85;7.50;;;13.80;76.30;;;;;;4893064;29;20459;-89
2022/05/14 06:01:26;;;;;;;9.07;6.65;;;13.90;75.20;;;;;;4901284;29;20025;-92
2022/05/14 06:03:52;;;;;;;11.23;7.30;;;14.00;72.30;;;;;;4902599;29;20028;-81
2022/05/14 06:06:19;;;;;;;9.45;6.95;;;14.10;72.10;;;;;;4903723;29;20033;-86
2022/05/14 06:08:45;;;;;;;8.02;5.65;;;14.10;71.20;;;;;;4901962;29;20040;-93
2022/05/14 06:11:14;;;;;;;8.45;5.70;;;14.40;71.00;;;;;;4904597;29;20486;-81
2022/05/14 06:13:40;;;;;;;9.13;5.90;;;14.50;71.30;;;;;;4901513;29;20052;-91
2022/05/14 06:16:06;;;;;;;9.93;6.38;;;14.60;69.80;;;;;;4902667;29;20032;-90
2022/05/14 06:18:32;;;;;;;9.60;5.85;;;14.70;68.30;;;;;;4900788;29;20043;-81
2022/05/14 06:20:59;;;;;;;8.07;5.38;;;14.90;67.40;;;;;;4900588;29;20024;-83
2022/05/14 06:23:24;;;;;;;9.63;5.93;;;14.90;67.20;;;;;;4902045;29;20036;-90
2022/05/14 06:25:50;;;;;;;8.55;4.53;;;15.00;67.00;;;;;;4901691;29;20036;-81
2022/05/14 06:28:16;;;;;;;10.15;4.40;;;15.10;65.80;;;;;;4901676;29;20039;-90
2022/05/14 06:30:43;;;;;;;6.05;3.85;;;15.20;64.50;;;;;;4885179;29;20018;-81
2022/05/14 06:33:10;;;;;;;11.40;4.20;;;15.30;64.40;;;;;;4885009;29;20487;-81
2022/05/14 06:35:37;;;;;;;5.50;3.65;;;15.50;64.00;;;;;;4901875;29;20024;-82
2022/05/14 06:38:04;;;;;;;6.07;2.85;;;15.40;63.70;;;;;;4901695;29;20068;-91
2022/05/14 06:40:31;;;;;;;4.50;2.80;;;15.50;61.90;;;;;;4885533;29;20040;-90
2022/05/14 06:42:57;;;;;;;6.47;2.95;;;15.70;61.00;;;;;;4885473;29;20080;-90
2022/05/14 06:45:23;;;;;;;6.22;2.67;;;15.60;59.80;;;;;;4903619;29;20037;-81
2022/05/14 06:47:49;;;;;;;5.43;2.60;;;15.70;58.30;;;;;;4885583;29;20060;-86
2022/05/14 06:50:14;;;;;;;5.53;2.80;;;15.90;58.70;;;;;;4884243;29;20056;-82
2022/05/14 06:52:45;;;;;;;4.78;2.58;;;16.00;58.10;;;;;;4900644;29;20080;-85
2022/05/14 06:55:12;;;;;;;4.05;2.30;;;16.20;58.90;;;;;;4884029;29;20033;-81
2022/05/14 06:57:38;;;;;;;4.95;2.80;;;16.30;58.00;;;;;;4900390;29;20029;-91
2022/05/14 07:00:05;;;;;;;9.38;3.15;;;16.30;58.50;;;;;;4883269;29;20033;-91
2022/05/14 07:02:31;;;;;;;5.35;2.70;;;16.20;57.50;;;;;;4883702;29;20080;-81
2022/05/14 07:07:41;;;;;;;5.10;2.60;;;16.50;58.50;;;;;;4900528;29;20040;-81
2022/05/14 07:10:07;;;;;;;4.22;2.70;;;16.60;57.20;;;;;;4899960;29;20033;-92
2022/05/14 07:12:33;;;;;;;4.07;2.95;;;16.50;57.00;;;;;;4883517;29;20025;-91
2022/05/14 07:14:59;;;;;;;8.77;3.90;;;16.60;56.80;;;;;;4883023;29;20036;-82
2022/05/14 07:17:27;;;;;;;5.00;2.75;;;16.50;57.30;;;;;;4899884;29;20021;-89
2022/05/14 07:19:53;;;;;;;5.47;2.60;;;17.00;57.80;;;;;;4899770;29;20115;-92
2022/05/14 07:22:19;;;;;;;5.88;3.15;;;17.10;56.70;;;;;;4883505;29;20502;-82
2022/05/14 07:24:45;;;;;;;7.90;2.42;;;17.10;56.50;;;;;;4883144;29;20029;-81
2022/05/14 07:27:12;;;;;;;3.90;2.60;;;16.80;56.50;;;;;;4900039;29;20478;-91
2022/05/14 07:29:43;;;;;;;7.85;3.63;;;17.00;56.80;;;;;;4883100;29;20053;-91
2022/05/14 07:32:16;;;;;;;9.27;2.80;;;17.00;56.30;;;;;;4882684;29;20040;-81
2022/05/14 07:34:42;;;;;;;5.95;2.75;;;16.90;56.70;;;;;;4882863;29;20367;-81
2022/05/14 07:37:16;;;;;;;7.38;3.22;;;17.10;56.20;;;;;;4899480;29;20033;-91
2022/05/14 07:39:47;;;;;;;6.40;3.35;;;17.30;56.80;;;;;;4899405;29;20036;-90
2022/05/14 07:42:20;;;;;;;2.65;2.45;;;16.90;55.80;;;;;;4899674;29;20032;-89
2022/05/14 07:44:48;;;;;;;4.97;2.72;;;16.80;56.10;;;;;;4883103;29;20032;-90
2022/05/14 07:47:14;;;;;;;5.60;2.90;;;16.90;56.70;;;;;;4882949;29;20391;-81
2022/05/14 07:49:43;;;;;;;8.48;2.92;;;16.60;55.30;;;;;;4882718;29;20151;-89
2022/05/14 07:52:09;;;;;;;5.68;2.50;;;16.40;56.00;;;;;;4899328;29;20506;-92
2022/05/14 07:54:34;;;;;;;6.93;2.85;;;16.40;56.70;;;;;;4882323;29;20024;-85
2022/05/14 07:57:02;;;;;;;5.80;2.95;;;16.60;56.60;;;;;;4882403;29;20025;-81
2022/05/14 07:59:28;;;;;;;5.90;2.30;;;16.70;55.90;;;;;;4898546;29;20390;-81
2022/05/14 08:01:53;;;;;;;6.32;2.42;;;16.80;55.90;;;;;;4898900;29;20020;-82
2022/05/14 08:04:19;;;;;;;13.30;4.10;;;17.00;54.80;;;;;;4882376;29;20025;-82
2022/05/14 08:06:45;;;;;;;3.25;2.80;;;17.10;54.90;;;;;;4899109;29;20111;-81
2022/05/14 08:09:11;;;;;;;6.28;2.35;;;17.30;54.00;;;;;;4899262;29;20056;-88
2022/05/14 08:11:37;;;;;;;5.13;2.58;;;17.30;54.30;;;;;;4881776;29;20027;-89
2022/05/14 08:14:02;;;;;;;4.75;2.47;;;17.20;54.20;;;;;;4882362;29;20031;-82
2022/05/14 08:16:28;;;;;;;5.85;2.78;;;17.20;53.90;;;;;;4881843;29;20399;-81
2022/05/14 08:18:54;;;;;;;3.13;2.78;;;17.00;53.60;;;;;;4899202;29;20044;-82
2022/05/14 08:26:49;;;;;;;6.38;2.30;;;17.50;54.80;;;;;;4898516;29;20060;-81
2022/05/14 08:29:16;;;;;;;5.20;3.20;;;17.90;53.80;;;;;;4898419;29;20103;-90
2022/05/14 08:31:41;;;;;;;3.20;2.45;;;18.20;53.50;;;;;;4866601;29;20036;-92
2022/05/14 08:34:07;;;;;;;10.38;2.30;;;18.10;52.80;;;;;;4881289;29;20024;-86
2022/05/14 08:36:33;;;;;;;4.28;2.28;;;18.00;52.20;;;;;;4897935;29;20028;-84
2022/05/14 08:38:59;;;;;;;5.03;2.10;;;18.40;52.90;;;;;;4897607;29;20111;-81
2022/05/14 08:41:25;;;;;;;5.30;2.28;;;18.40;51.90;;;;;;4898035;29;20104;-90
2022/05/14 08:43:53;;;;;;;5.35;2.70;;;18.40;50.20;;;;;;4895551;29;20021;-85
2022/05/14 08:46:23;;;;;;;5.20;3.03;;;18.70;51.20;;;;;;4878258;29;20041;-81
2022/05/14 08:48:56;;;;;;;2.83;2.47;;;18.30;50.70;;;;;;4880436;29;20025;-91
2022/05/14 08:51:27;;;;;;;5.95;2.42;;;17.90;51.00;;;;;;4897677;29;20128;-90
2022/05/14 08:53:52;;;;;;;3.25;2.28;;;18.00;51.70;;;;;;4879425;29;20021;-89
2022/05/14 08:56:21;;;;;;;5.13;2.42;;;18.40;51.80;;;;;;4894603;29;20043;-88
2022/05/14 08:59:17;;;;;;;4.43;2.50;;;18.60;51.00;;;;;;4894996;29;20505;-89
2022/05/14 09:01:45;;;;;;;4.65;2.38;;;18.40;50.90;;;;;;4878206;29;20059;-82
2022/05/14 09:04:13;;;;;;;4.80;2.15;;;18.50;50.50;;;;;;4894607;29;20509;-82
2022/05/14 09:06:41;;;;;;;11.10;2.80;;;18.60;49.60;;;;;;4879786;29;20641;-82
2022/05/14 09:09:10;;;;;;;7.10;2.78;;;18.10;50.00;;;;;;4880034;29;20032;-82
2022/05/14 09:11:53;;;;;;;2.63;2.15;;;17.70;51.10;;;;;;4893960;29;20041;-81
2022/05/14 09:14:24;;;;;;;5.35;2.85;;;18.00;51.40;;;;;;4895225;29;20596;-81
2022/05/14 09:17:07;;;;;;;4.70;2.80;;;18.30;51.40;;;;;;4879647;29;20035;-82
2022/05/14 09:19:38;;;;;;;4.45;2.90;;;18.60;50.70;;;;;;4895839;29;20032;-88
2022/05/14 09:22:23;;;;;;;7.18;3.10;;;18.40;49.90;;;;;;4895701;29;20547;-82
2022/05/14 09:24:58;;;;;;;6.47;3.10;;;18.20;48.90;;;;;;4878918;29;20040;-88
2022/05/14 09:27:43;;;;;;;7.63;2.92;;;17.90;49.20;;;;;;4895209;29;20056;-90
2022/05/14 09:30:13;;;;;;;5.63;3.03;;;17.60;50.30;;;;;;4895344;29;20068;-89
2022/05/14 09:32:44;;;;;;;4.60;2.85;;;17.80;51.20;;;;;;4896755;29;20032;-82
2022/05/14 09:35:19;;;;;;;6.05;2.80;;;17.80;51.30;;;;;;4897701;29;20037;-82
2022/05/14 09:37:45;;;;;;;4.18;2.85;;;17.70;51.10;;;;;;4880818;29;20402;-82
2022/05/14 09:40:26;;;;;;;5.47;2.97;;;18.00;50.80;;;;;;4897606;29;20116;-89
2022/05/14 09:43:29;;;;;;;5.82;3.50;;;18.00;50.90;;;;;;4897504;29;20109;-92
2022/05/14 09:46:03;;;;;;;;;;;18.00;51.00;;;;;;4872504;29;20041;-83
2022/05/14 09:48:49;;;;;;;5.03;2.78;;;18.30;51.80;;;;;;4880660;29;19911;-82
2022/05/14 09:51:37;;;;;;;8.68;2.95;;;18.20;51.40;;;;;;4897333;29;20475;-89
2022/05/14 09:54:18;;;;;;;8.43;2.88;;;18.30;50.40;;;;;;4897376;29;20035;-82
2022/05/14 09:57:02;;;;;;;6.90;2.67;;;18.30;50.30;;;;;;4897962;29;20104;-83
2022/05/14 09:59:43;;;;;;;3.92;2.80;;;18.30;50.40;;;;;;4897591;29;20040;-81
2022/05/14 10:02:34;;;;;;;8.30;3.63;;;17.70;49.70;;;;;;4897407;29;20111;-88
2022/05/14 10:05:15;;;;;;;6.40;3.47;;;17.60;51.50;;;;;;4896830;29;20032;-88
2022/05/14 10:07:47;;;;;;;6.90;3.35;;;17.60;52.20;;;;;;4897184;29;20049;-81
2022/05/14 10:10:47;;;;;;;3.92;2.72;;;17.60;51.90;;;;;;4880624;29;20087;-92
2022/05/14 10:13:18;;;;;;;9.73;3.83;;;17.80;51.50;;;;;;4893040;29;20052;-82
2022/05/14 10:16:03;;;;;;;6.03;2.95;;;17.90;51.80;;;;;;4880579;29;20499;-90
2022/05/14 10:18:34;;;;;;;7.88;2.83;;;17.90;51.10;;;;;;4897221;29;20037;-88
2022/05/14 10:21:08;;;;;;;3.67;2.45;;;18.30;50.80;;;;;;4880131;29;20062;-89
2022/05/14 10:27:19;;;;;;;2.65;2.42;;;18.60;49.90;;;;;;4899877;29;20087;-90
2022/05/14 10:30:05;;;;;;;4.07;2.60;;;18.20;49.00;;;;;;4898629;29;20049;-89
2022/05/14 10:32:32;;;;;;;5.30;2.97;;;17.90;49.70;;;;;;4900360;29;20024;-88
2022/05/14 10:35:19;;;;;;;9.15;3.00;;;18.10;50.70;;;;;;4900432;29;20111;-88
2022/05/14 10:37:55;;;;;;;6.60;2.45;;;18.80;51.30;;;;;;4884043;29;20100;-82
2022/05/14 10:40:40;;;;;;;2.22;2.03;;;18.80;49.70;;;;;;4900583;29;20025;-89
2022/05/14 10:43:26;;;;;;;7.97;2.85;;;18.80;49.20;;;;;;4883843;29;20021;-89
2022/05/14 10:45:55;;;;;;;5.70;2.60;;;18.50;48.80;;;;;;4900515;29;20035;-91
2022/05/14 10:48:35;;;;;;;6.40;2.85;;;18.10;50.10;;;;;;4900479;29;20032;-89
2022/05/14 10:51:03;;;;;;;4.30;2.55;;;18.10;50.60;;;;;;4883303;29;20080;-89
2022/05/14 10:53:29;;;;;;;5.13;2.40;;;18.20;50.90;;;;;;4900014;29;20399;-89
2022/05/14 10:56:10;;;;;;;9.68;3.83;;;18.10;50.40;;;;;;4883583;29;20084;-82
2022/05/14 10:59:05;;;;;;;4.03;2.53;;;18.00;49.60;;;;;;4883417;29;20046;-89
2022/05/14 11:01:46;;;;;;;5.75;3.08;;;17.90;50.60;;;;;;4883640;29;20028;-82
2022/05/14 11:04:44;;;;;;;8.20;3.05;;;17.90;51.30;;;;;;4883495;29;20024;-88
2022/05/14 11:07:14;;;;;;;6.60;3.72;;;18.00;50.60;;;;;;4900306;29;20036;-82
2022/05/14 11:09:49;;;;;;;6.20;2.72;;;18.30;50.20;;;;;;4900004;29;20024;-82
2022/05/14 11:12:21;;;;;;;5.78;2.78;;;18.70;50.50;;;;;;4900131;29;20029;-87
2022/05/14 11:14:55;;;;;;;4.75;3.00;;;19.10;50.70;;;;;;4900061;29;20423;-89
2022/05/14 11:17:22;;;;;;;8.02;3.08;;;19.00;49.70;;;;;;4899973;29;20017;-89
2022/05/14 11:19:49;;;;;;;7.88;3.13;;;18.70;49.00;;;;;;4899748;29;20033;-90
2022/05/14 11:22:25;;;;;;;6.43;2.85;;;18.60;50.10;;;;;;4882910;29;20025;-86
2022/05/14 11:24:51;;;;;;;7.70;3.08;;;18.60;50.10;;;;;;4899618;29;20032;-81
2022/05/14 11:27:30;;;;;;;8.07;3.42;;;18.40;50.80;;;;;;4899467;29;20426;-89
2022/05/14 11:30:00;;;;;;;5.78;2.83;;;18.60;50.20;;;;;;4899898;29;20028;-82
2022/05/14 11:32:36;;;;;;;5.75;3.55;;;18.70;49.30;;;;;;4882824;29;20025;-89
2022/05/14 11:35:06;;;;;;;5.93;2.70;;;18.50;48.80;;;;;;4898693;29;20057;-82
2022/05/14 11:37:35;;;;;;;6.38;2.85;;;18.50;49.50;;;;;;4899550;29;20036;-90
2022/05/14 11:40:35;;;;;;;6.75;2.33;;;18.40;50.40;;;;;;4899265;29;20116;-89
2022/05/14 11:43:11;;;;;;;6.13;3.30;;;18.50;50.20;;;;;;4890908;29;20056;-82
2022/05/14 11:45:41;;;;;;;5.10;2.85;;;18.60;50.60;;;;;;4899598;29;20032;-83
2022/05/14 11:48:17;;;;;;;5.60;3.13;;;19.20;50.60;;;;;;4899591;29;20156;-89
2022/05/14 11:50:50;;;;;;;7.90;3.58;;;19.20;49.00;;;;;;4882343;29;20021;-89
2022/05/14 11:53:22;;;;;;;8.70;2.88;;;18.90;47.70;;;;;;4882335;29;20397;-89
2022/05/14 11:55:53;;;;;;;5.07;2.78;;;19.00;48.50;;;;;;4899805;29;20029;-81
2022/05/14 11:58:43;;;;;;;8.38;3.15;;;19.20;48.80;;;;;;4898993;29;20483;-82
2022/05/14 12:01:32;;;;;;;4.47;2.60;;;19.60;48.40;;;;;;4899281;29;20036;-82
2022/05/14 12:04:01;;;;;;;4.88;2.80;;;19.70;47.30;;;;;;4881979;29;20040;-88
2022/05/14 12:06:53;;;;;;;3.97;2.63;;;19.50;47.10;;;;;;4882331;29;20025;-81
2022/05/14 12:09:40;;;;;;;4.40;2.67;;;19.30;47.10;;;;;;4882132;29;20096;-89
2022/05/14 12:12:34;;;;;;;5.07;2.95;;;19.60;47.60;;;;;;4882148;29;20032;-88
2022/05/14 12:15:12;;;;;;;6.22;3.03;;;19.60;47.30;;;;;;4895096;29;20103;-82
2022/05/14 12:17:37;;;;;;;5.90;3.13;;;19.60;47.60;;;;;;4898985;29;20069;-88
2022/05/14 12:20:04;;;;;;;6.50;2.70;;;19.50;47.10;;;;;;4898847;29;20040;-89
2022/05/14 12:22:30;;;;;;;5.38;2.90;;;19.40;46.80;;;;;;4898812;29;20108;-82
2022/05/14 12:25:08;;;;;;;7.20;3.38;;;19.40;47.00;;;;;;4898685;29;20103;-83
2022/05/14 12:27:43;;;;;;;6.30;3.60;;;19.60;46.60;;;;;;4898546;29;20076;-88
2022/05/14 12:30:12;;;;;;;11.93;3.58;;;19.80;47.00;;;;;;4898641;29;20068;-82
2022/05/14 12:35:29;;;;;;;6.65;3.10;;;20.00;45.90;;;;;;4898535;29;20051;-82
2022/05/14 12:37:58;;;;;;;4.75;3.33;;;19.80;44.00;;;;;;4898227;29;20100;-87
2022/05/14 12:40:30;;;;;;;13.63;3.85;;;20.20;44.60;;;;;;4898417;29;20031;-89
2022/05/14 12:42:57;;;;;;;6.63;3.22;;;20.40;45.20;;;;;;4881463;29;20025;-82
2022/05/14 12:45:41;;;;;;;8.68;3.53;;;20.50;44.90;;;;;;4898080;29;20395;-82
2022/05/14 12:48:08;;;;;;;7.88;3.35;;;20.40;44.60;;;;;;4898230;29;20092;-89
2022/05/14 12:50:34;;;;;;;5.43;2.88;;;20.10;43.60;;;;;;4898186;29;20028;-81
2022/05/14 12:53:03;;;;;;;4.45;3.42;;;20.00;44.00;;;;;;4898273;29;20033;-83
2022/05/14 12:55:34;;;;;;;5.78;3.60;;;20.20;44.50;;;;;;4881437;29;20443;-82
2022/05/14 12:58:01;;;;;;;7.25;3.50;;;20.30;44.50;;;;;;4898354;29;20115;-83
2022/05/14 13:00:28;;;;;;;7.40;3.85;;;20.20;44.10;;;;;;4897809;29;20081;-88
2022/05/14 13:03:15;;;;;;;7.85;3.60;;;20.20;44.20;;;;;;4898207;29;20048;-81
2022/05/14 13:05:46;;;;;;;6.63;3.78;;;20.10;43.70;;;;;;4881495;29;20148;-82
2022/05/14 13:08:16;;;;;;;5.40;4.00;;;19.90;44.00;;;;;;4898189;29;20052;-89
2022/05/14 13:10:56;;;;;;;9.95;3.80;;;19.70;44.20;;;;;;4881164;29;20020;-88
2022/05/14 13:13:42;;;;;;;5.97;3.83;;;19.60;44.80;;;;;;4898091;29;20046;-82
2022/05/14 13:16:22;;;;;;;3.80;3.38;;;19.40;44.50;;;;;;4897957;29;20024;-84
2022/05/14 13:18:51;;;;;;;3.50;3.20;;;19.20;45.00;;;;;;4898059;29;20390;-81
2022/05/14 13:21:25;;;;;;;6.40;3.88;;;19.20;46.20;;;;;;4897704;29;20025;-82
2022/05/14 13:23:54;;;;;;;3.50;3.20;;;19.30;44.70;;;;;;4897823;29;20035;-82
2022/05/14 13:26:37;;;;;;;6.13;3.17;;;19.30;44.70;;;;;;4897346;29;20028;-81